UAE434 OMDB-YBBN
Flight info
| Callsign | UAE434 |
|---|---|
| Flight time | N/A |
| Altitude | 33000 |
| Route | ANVIX L223 TARDI N629 GIDAN P570 EMURU M300 MESAN/N0502F350 M300 VASTU P895 BIKOK M641 KALOX/N0496F370 M641 DOGAR DCT DAOVO DCT PIBED DCT 09S094E DCT POROR DCT 19S106E 22S111E/N0487F390 DCT ATLOD DCT NOPED DCT 28S124E DCT PINAV DCT 29S130E DCT CARTS DCT GUGAB DCT AROLI DCT EGUBA DCT ENLIP |
| Aircraft | A388/J-SADE2E3FGHIJ3J4J5M1RWXY/LB1D1 |
Departure
| Time | 2026-05-05 12:49 |
|---|---|
| Airport | Dubai International Airport (OMDB) |
Arrival
| Time | N/A |
|---|---|
| Airport | Brisbane International Airport (YBBN) |
| Time | Latitude | Longitude | Altitude | Speed | Heading |
|---|---|---|---|---|---|
| 2026-05-05 12:20 | 25.24309 | 55.37448 | 26 ft | 0 kts | 211° |
| 2026-05-05 12:39 | 25.24333 | 55.37461 | 27 ft | 4 kts | 201° |
| 2026-05-05 12:39 | 25.24358 | 55.37469 | 32 ft | 4 kts | 186° |
| 2026-05-05 12:39 | 25.24383 | 55.37468 | 32 ft | 4 kts | 168° |
| 2026-05-05 12:40 | 25.24405 | 55.37458 | 32 ft | 4 kts | 142° |
| 2026-05-05 12:40 | 25.24415 | 55.37447 | 32 ft | 3 kts | 123° |
| 2026-05-05 12:40 | 25.24417 | 55.37445 | 32 ft | 0 kts | 121° |
| 2026-05-05 12:44 | 25.24415 | 55.37448 | 32 ft | 2 kts | 121° |
| 2026-05-05 12:44 | 25.24396 | 55.37483 | 32 ft | 10 kts | 121° |
| 2026-05-05 12:45 | 25.24341 | 55.37582 | 30 ft | 20 kts | 121° |
| 2026-05-05 12:45 | 25.24273 | 55.37700 | 30 ft | 15 kts | 122° |
| 2026-05-05 12:45 | 25.24282 | 55.37785 | 26 ft | 12 kts | 39° |
| 2026-05-05 12:45 | 25.24312 | 55.37809 | 26 ft | 0 kts | 34° |
| 2026-05-05 12:46 | 25.24322 | 55.37816 | 26 ft | 4 kts | 34° |
| 2026-05-05 12:46 | 25.24380 | 55.37860 | 27 ft | 16 kts | 34° |
| 2026-05-05 12:46 | 25.24484 | 55.37937 | 30 ft | 18 kts | 34° |
| 2026-05-05 12:46 | 25.24585 | 55.38013 | 28 ft | 18 kts | 33° |
| 2026-05-05 12:47 | 25.24677 | 55.38077 | 29 ft | 10 kts | 31° |
| 2026-05-05 12:47 | 25.24732 | 55.38110 | 31 ft | 7 kts | 9° |
| 2026-05-05 12:47 | 25.24776 | 55.38080 | 31 ft | 5 kts | 303° |
| 2026-05-05 12:47 | 25.24777 | 55.38080 | 31 ft | 0 kts | 303° |
| 2026-05-05 12:48 | 25.24801 | 55.38038 | 30 ft | 24 kts | 302° |
| 2026-05-05 12:48 | 25.25008 | 55.37660 | 31 ft | 88 kts | 302° |
| 2026-05-05 12:48 | 25.25422 | 55.36916 | 30 ft | 135 kts | 301° |
| 2026-05-05 12:48 | 25.25969 | 55.35930 | 40 ft | 163 kts | 302° |
| 2026-05-05 12:49 | 25.26545 | 55.34880 | 468 ft | 156 kts | 303° |
| 2026-05-05 12:49 | 25.27119 | 55.33852 | 766 ft | 164 kts | 304° |
| 2026-05-05 12:49 | 25.27736 | 55.32771 | 1030 ft | 170 kts | 306° |
| 2026-05-05 12:49 | 25.28391 | 55.31646 | 1273 ft | 179 kts | 308° |
| 2026-05-05 12:50 | 25.29089 | 55.30468 | 1561 ft | 184 kts | 305° |
| 2026-05-05 12:50 | 25.29517 | 55.29119 | 1771 ft | 195 kts | 274° |
| 2026-05-05 12:50 | 25.29247 | 55.27634 | 1933 ft | 202 kts | 247° |
| 2026-05-05 12:50 | 25.28557 | 55.26264 | 2039 ft | 207 kts | 238° |
| 2026-05-05 12:51 | 25.27796 | 55.24897 | 2121 ft | 211 kts | 240° |
| 2026-05-05 12:51 | 25.27072 | 55.23470 | 2204 ft | 214 kts | 243° |
| 2026-05-05 12:51 | 25.26405 | 55.22024 | 2291 ft | 214 kts | 244° |
| 2026-05-05 12:51 | 25.25762 | 55.20552 | 2385 ft | 213 kts | 245° |
| 2026-05-05 12:52 | 25.25125 | 55.19059 | 2427 ft | 216 kts | 245° |
| 2026-05-05 12:52 | 25.24341 | 55.17622 | 2382 ft | 225 kts | 222° |
| 2026-05-05 12:52 | 25.22992 | 55.16781 | 2461 ft | 226 kts | 190° |
| 2026-05-05 12:52 | 25.21434 | 55.16757 | 2535 ft | 227 kts | 174° |
| 2026-05-05 12:53 | 25.19816 | 55.16942 | 2574 ft | 241 kts | 167° |
| 2026-05-05 12:53 | 25.18297 | 55.17792 | 2694 ft | 254 kts | 134° |
| 2026-05-05 12:53 | 25.17325 | 55.19368 | 3126 ft | 254 kts | 115° |
| 2026-05-05 12:53 | 25.16501 | 55.21165 | 3316 ft | 270 kts | 116° |